Time;durP1;ratioP1;P1;durP2;ratioP2;P2;SDS_P1;SDS_P2;PMS_P1;PMS_P2;Temp;Humidity;BMP_temperature;BMP_pressure;BME280_temperature;BME280_humidity;BME280_pressure;Samples;Min_cycle;Max_cycle;Signal;HPM_P1;HPM_P2
2023/10/28 00:01:59;;;;;;;21.57;6.80;;;;;;;8.69;100.00;99317.25;5276964;28;20484;-74
2023/10/28 00:04:31;;;;;;;18.43;7.47;;;;;;;8.73;100.00;99321.50;5276724;28;20085;-76
2023/10/28 00:07:03;;;;;;;18.23;6.80;;;;;;;8.74;100.00;99323.19;5274852;28;20025;-75
2023/10/28 00:09:34;;;;;;;25.10;7.30;;;;;;;8.80;100.00;99321.31;5270286;28;20087;-75
2023/10/28 00:12:08;;;;;;;16.03;6.13;;;;;;;8.82;100.00;99327.31;5266390;28;20095;-75
2023/10/28 00:14:40;;;;;;;18.58;6.63;;;;;;;8.84;100.00;99323.78;5267664;28;20421;-75
2023/10/28 00:17:11;;;;;;;19.95;6.47;;;;;;;8.85;100.00;99327.22;5268023;28;20137;-74
2023/10/28 00:19:43;;;;;;;18.20;6.60;;;;;;;8.89;100.00;99328.84;5268960;28;20090;-74
2023/10/28 00:22:14;;;;;;;18.77;6.27;;;;;;;8.89;100.00;99321.06;5271465;28;20040;-75
2023/10/28 00:24:46;;;;;;;17.90;6.03;;;;;;;8.90;100.00;99333.13;5273516;28;20035;-74
2023/10/28 00:27:17;;;;;;;20.57;7.93;;;;;;;8.93;100.00;99314.84;5270989;28;20036;-74
2023/10/28 00:29:51;;;;;;;12.87;5.40;;;;;;;8.94;100.00;99321.75;5269362;28;20049;-75
2023/10/28 00:32:23;;;;;;;17.38;6.07;;;;;;;8.99;100.00;99321.63;5267196;28;20025;-74
2023/10/28 00:34:59;;;;;;;15.43;7.07;;;;;;;8.99;100.00;99324.22;5266892;28;20055;-75
2023/10/28 00:37:31;;;;;;;15.32;5.03;;;;;;;9.01;100.00;99319.84;5267934;28;20440;-74
2023/10/28 00:40:07;;;;;;;17.05;5.60;;;;;;;9.03;100.00;99324.09;5266399;28;20029;-75
2023/10/28 00:42:39;;;;;;;15.88;5.35;;;;;;;9.07;100.00;99319.66;5265101;28;20040;-74
2023/10/28 00:45:11;;;;;;;30.47;5.87;;;;;;;9.09;100.00;99316.09;5266077;28;20029;-75
2023/10/28 00:47:45;;;;;;;17.40;5.93;;;;;;;9.11;100.00;99322.13;5266167;28;20044;-74
2023/10/28 00:50:16;;;;;;;14.30;4.88;;;;;;;9.15;100.00;99329.81;5265930;28;20020;-74
2023/10/28 00:52:52;;;;;;;15.97;4.97;;;;;;;9.20;100.00;99326.16;5265960;28;20054;-74
2023/10/28 00:55:24;;;;;;;15.50;4.05;;;;;;;9.19;100.00;99319.25;5265865;28;20074;-76
2023/10/28 00:57:55;;;;;;;14.20;6.03;;;;;;;9.21;100.00;99327.00;5266733;28;20507;-76
2023/10/28 01:00:28;;;;;;;10.60;3.50;;;;;;;9.23;100.00;99318.28;5266378;28;20016;-75
2023/10/28 01:03:00;;;;;;;15.35;4.10;;;;;;;9.25;100.00;99315.63;5265643;28;20163;-75
2023/10/28 01:05:34;;;;;;;11.63;4.20;;;;;;;9.29;100.00;99319.84;5266539;28;20481;-75
2023/10/28 01:08:05;;;;;;;9.02;3.35;;;;;;;9.29;100.00;99322.47;5265748;28;20037;-75
2023/10/28 01:10:39;;;;;;;9.83;3.67;;;;;;;9.31;100.00;99333.66;5266419;28;20028;-74
2023/10/28 01:13:10;;;;;;;9.85;3.83;;;;;;;9.31;100.00;99333.66;5266035;28;20044;-75
2023/10/28 01:15:42;;;;;;;12.13;3.53;;;;;;;9.29;100.00;99325.06;5264675;28;20049;-75
2023/10/28 01:18:13;;;;;;;9.47;3.83;;;;;;;9.32;100.00;99324.94;5266572;28;20057;-74
2023/10/28 01:20:44;;;;;;;11.00;2.73;;;;;;;9.31;100.00;99325.84;5265971;28;20040;-74
2023/10/28 01:23:16;;;;;;;7.43;3.27;;;;;;;9.30;100.00;99326.75;5265286;28;20376;-74
2023/10/28 01:25:47;;;;;;;10.70;3.10;;;;;;;9.34;100.00;99320.56;5265655;28;20445;-75
2023/10/28 01:28:19;;;;;;;10.03;3.17;;;;;;;9.36;100.00;99315.31;5264144;28;20025;-75
2023/10/28 01:30:50;;;;;;;5.87;3.10;;;;;;;9.37;100.00;99323.06;5265317;28;20032;-76
2023/10/28 01:33:22;;;;;;;6.30;2.23;;;;;;;9.37;100.00;99330.00;5265403;28;20039;-75
2023/10/28 01:35:53;;;;;;;6.57;2.40;;;;;;;9.38;100.00;99319.53;5264982;28;20053;-75
2023/10/28 01:38:26;;;;;;;11.70;3.17;;;;;;;9.37;100.00;99319.59;5265155;28;20264;-75
2023/10/28 01:40:57;;;;;;;5.32;2.25;;;;;;;9.40;100.00;99324.69;5264975;28;20021;-74
2023/10/28 01:43:29;;;;;;;6.30;3.00;;;;;;;9.41;100.00;99327.25;5265056;28;20037;-75
2023/10/28 01:46:00;;;;;;;6.05;2.47;;;;;;;9.39;100.00;99331.66;5265120;28;20117;-75
2023/10/28 01:48:32;;;;;;;7.03;2.63;;;;;;;9.38;100.00;99322.16;5265035;28;20039;-75
2023/10/28 01:51:04;;;;;;;9.07;2.57;;;;;;;9.37;100.00;99330.88;5264859;28;20059;-75
2023/10/28 01:53:35;;;;;;;6.63;2.50;;;;;;;9.36;100.00;99323.13;5264752;28;20049;-75
2023/10/28 01:56:07;;;;;;;4.67;2.20;;;;;;;9.37;100.00;99327.41;5264909;28;20021;-75
2023/10/28 01:58:38;;;;;;;6.53;2.10;;;;;;;9.34;100.00;99315.34;5264620;28;20025;-75
2023/10/28 02:01:10;;;;;;;5.97;3.13;;;;;;;9.34;100.00;99325.75;5264525;28;20033;-76
2023/10/28 02:03:41;;;;;;;7.70;2.83;;;;;;;9.32;100.00;99317.13;5264458;28;20456;-76
2023/10/28 02:06:12;;;;;;;8.77;2.97;;;;;;;9.33;100.00;99321.44;5264097;28;20039;-75
2023/10/28 02:08:44;;;;;;;6.10;2.47;;;;;;;9.32;100.00;99311.94;5263282;28;20065;-75
2023/10/28 02:11:15;;;;;;;8.00;2.40;;;;;;;9.31;100.00;99308.50;5265011;28;20032;-75
2023/10/28 02:13:46;;;;;;;7.33;2.60;;;;;;;9.30;100.00;99311.97;5264101;28;20025;-75
2023/10/28 02:16:18;;;;;;;6.87;3.10;;;;;;;9.29;100.00;99314.66;5264588;28;20045;-75
2023/10/28 02:18:50;;;;;;;5.40;2.23;;;;;;;9.29;100.00;99312.91;5263887;28;20028;-75
2023/10/28 02:21:22;;;;;;;9.70;2.40;;;;;;;9.27;100.00;99311.22;5264181;28;20275;-77
2023/10/28 02:23:53;;;;;;;9.07;2.57;;;;;;;9.25;100.00;99308.69;5264251;28;20429;-76
2023/10/28 02:26:25;;;;;;;6.80;2.37;;;;;;;9.28;100.00;99318.97;5264113;28;20055;-75
2023/10/28 02:28:56;;;;;;;5.03;2.10;;;;;;;9.24;100.00;99313.91;5264302;28;20029;-75
2023/10/28 02:31:29;;;;;;;7.93;2.40;;;;;;;9.24;100.00;99311.31;5264792;28;20029;-75
2023/10/28 02:34:00;;;;;;;5.47;2.35;;;;;;;9.19;100.00;99314.06;5264133;28;20024;-76
2023/10/28 02:36:32;;;;;;;8.63;2.60;;;;;;;9.16;100.00;99311.59;5263947;28;20036;-75
2023/10/28 02:39:03;;;;;;;7.07;2.57;;;;;;;9.16;100.00;99311.59;5263635;28;20085;-76
2023/10/28 02:41:34;;;;;;;6.87;2.47;;;;;;;9.13;100.00;99314.28;5262365;28;20033;-75
2023/10/28 02:44:06;;;;;;;3.90;1.97;;;;;;;9.07;100.00;99325.69;5279521;28;20017;-75
2023/10/28 02:46:38;;;;;;;3.40;2.10;;;;;;;9.05;100.00;99324.06;5264383;28;20130;-75
2023/10/28 02:49:10;;;;;;;6.85;2.33;;;;;;;9.02;100.00;99322.38;5263721;28;20031;-75
2023/10/28 02:51:41;;;;;;;7.30;2.27;;;;;;;9.01;100.00;99319.84;5263935;28;20037;-75
2023/10/28 02:54:14;;;;;;;5.07;1.70;;;;;;;9.00;100.00;99323.31;5263620;28;20028;-75
2023/10/28 02:56:45;;;;;;;2.63;1.75;;;;;;;8.98;100.00;99325.13;5263445;28;20052;-75
2023/10/28 02:59:16;;;;;;;4.63;1.83;;;;;;;8.98;100.00;99323.34;5263500;28;20040;-75
2023/10/28 03:01:48;;;;;;;4.23;2.30;;;;;;;9.02;100.00;99327.59;5263383;28;20021;-75
2023/10/28 03:04:20;;;;;;;5.10;2.50;;;;;;;9.06;100.00;99328.34;5263291;28;20065;-76
2023/10/28 03:06:52;;;;;;;4.78;2.63;;;;;;;9.06;100.00;99331.78;5263461;28;20024;-76
2023/10/28 03:09:23;;;;;;;5.53;2.40;;;;;;;9.07;100.00;99333.50;5263482;28;20025;-76
2023/10/28 03:11:54;;;;;;;5.33;2.00;;;;;;;9.03;100.00;99331.91;5263053;28;20036;-75
2023/10/28 03:14:26;;;;;;;6.17;2.20;;;;;;;9.03;100.00;99328.44;5263541;28;20134;-75
2023/10/28 03:16:57;;;;;;;6.33;2.30;;;;;;;9.03;100.00;99324.09;5263904;28;20073;-74
2023/10/28 03:19:28;;;;;;;5.67;2.80;;;;;;;8.98;100.00;99331.16;5263157;28;20071;-74
2023/10/28 03:22:00;;;;;;;5.00;2.47;;;;;;;8.92;100.00;99332.22;5263095;28;20112;-74
2023/10/28 03:24:31;;;;;;;5.90;2.83;;;;;;;8.83;100.00;99331.63;5262694;28;20116;-73
2023/10/28 03:27:03;;;;;;;3.80;2.60;;;;;;;8.74;100.00;99330.13;5263907;28;20047;-75
2023/10/28 03:29:34;;;;;;;3.70;2.23;;;;;;;8.68;100.00;99328.56;5263036;28;20376;-75
2023/10/28 03:32:07;;;;;;;4.80;2.20;;;;;;;8.64;100.00;99331.28;5261659;28;20032;-74
2023/10/28 03:34:38;;;;;;;10.57;2.78;;;;;;;8.63;100.00;99327.84;5262772;28;20060;-74
2023/10/28 03:37:09;;;;;;;7.80;2.73;;;;;;;8.62;100.00;99328.72;5262750;28;20104;-75
2023/10/28 03:39:41;;;;;;;9.80;3.03;;;;;;;8.68;100.00;99330.31;5263470;28;20028;-74
2023/10/28 03:42:12;;;;;;;5.47;2.40;;;;;;;8.69;100.00;99321.63;5262764;28;20151;-74
2023/10/28 03:44:43;;;;;;;5.57;2.60;;;;;;;8.69;100.00;99324.22;5262860;28;20048;-75
2023/10/28 03:47:15;;;;;;;4.73;2.50;;;;;;;8.68;100.00;99325.97;5262188;28;20032;-76
2023/10/28 03:49:46;;;;;;;9.67;2.77;;;;;;;8.69;100.00;99325.06;5262810;28;20108;-75
2023/10/28 03:52:17;;;;;;;5.07;2.43;;;;;;;8.72;100.00;99324.13;5266304;28;20037;-76
2023/10/28 03:54:49;;;;;;;9.00;3.03;;;;;;;8.72;100.00;99318.94;5263386;28;20087;-77
2023/10/28 03:57:21;;;;;;;5.10;2.50;;;;;;;8.78;100.00;99320.53;5264582;28;20345;-74
2023/10/28 03:59:53;;;;;;;5.25;2.65;;;;;;;8.74;100.00;99320.59;5265691;28;20037;-74
2023/10/28 04:02:25;;;;;;;6.40;2.73;;;;;;;8.75;100.00;99322.28;5263212;28;20053;-74
2023/10/28 04:04:57;;;;;;;;;;;;;;;8.80;100.00;99327.34;5268508;28;20563;-74
2023/10/28 04:07:28;;;;;;;5.93;2.63;;;;;;;8.79;100.00;99322.19;5271070;28;19917;-74
2023/10/28 04:10:04;;;;;;;7.03;2.53;;;;;;;8.78;100.00;99317.91;5279429;28;20036;-75
2023/10/28 04:12:36;;;;;;;5.55;2.40;;;;;;;8.79;100.00;99324.81;5280467;28;20017;-74
2023/10/28 04:15:09;;;;;;;4.95;2.30;;;;;;;8.80;100.00;99314.38;5279352;28;20056;-75
2023/10/28 04:17:40;;;;;;;7.07;2.30;;;;;;;8.83;100.00;99316.03;5276742;28;20063;-74
2023/10/28 04:20:11;;;;;;;3.93;2.63;;;;;;;8.84;100.00;99310.78;5277450;28;20041;-75
2023/10/28 04:22:43;;;;;;;5.37;2.53;;;;;;;8.86;100.00;99315.94;5275297;28;20057;-76
2023/10/28 04:25:15;;;;;;;6.38;2.53;;;;;;;8.88;100.00;99308.94;5273803;28;20029;-75
2023/10/28 04:27:46;;;;;;;6.83;2.30;;;;;;;8.87;100.00;99305.50;5267475;28;20052;-74
2023/10/28 04:30:18;;;;;;;5.57;2.67;;;;;;;8.90;100.00;99301.94;5263204;28;20029;-75
2023/10/28 04:32:52;;;;;;;7.38;2.53;;;;;;;8.91;100.00;99304.50;5263335;28;20116;-75
2023/10/28 04:35:23;;;;;;;7.05;2.40;;;;;;;8.92;100.00;99302.78;5262916;28;20116;-76
2023/10/28 04:37:55;;;;;;;5.10;2.00;;;;;;;8.94;100.00;99307.00;5262912;28;20140;-74
2023/10/28 04:40:27;;;;;;;5.57;2.40;;;;;;;8.93;100.00;99301.88;5261107;28;20472;-74
2023/10/28 04:43:01;;;;;;;7.07;2.60;;;;;;;8.97;100.00;99298.28;5262608;28;20766;-75
2023/10/28 04:45:32;;;;;;;6.65;2.50;;;;;;;8.99;100.00;99301.69;5262544;28;20064;-75
2023/10/28 04:48:06;;;;;;;5.97;2.30;;;;;;;9.00;100.00;99303.41;5262390;28;20057;-75
2023/10/28 04:50:37;;;;;;;8.57;2.40;;;;;;;9.02;100.00;99298.16;5262462;28;20021;-76
2023/10/28 04:53:09;;;;;;;4.30;2.40;;;;;;;9.03;100.00;99295.50;5262319;28;20032;-75
2023/10/28 04:55:41;;;;;;;7.07;2.53;;;;;;;9.02;100.00;99291.19;5262322;28;20037;-75
2023/10/28 04:58:14;;;;;;;7.13;2.53;;;;;;;9.03;100.00;99285.09;5263184;28;20040;-75
2023/10/28 05:00:45;;;;;;;8.80;2.35;;;;;;;9.06;100.00;99289.34;5266019;28;20044;-75
2023/10/28 05:03:17;;;;;;;8.83;2.77;;;;;;;9.06;100.00;99284.16;5265932;28;20021;-74
2023/10/28 05:05:48;;;;;;;6.37;2.30;;;;;;;9.08;100.00;99284.94;5265600;28;20021;-75
2023/10/28 05:08:20;;;;;;;7.70;2.80;;;;;;;9.08;100.00;99279.75;5265823;28;20033;-75
2023/10/28 05:10:53;;;;;;;14.68;2.72;;;;;;;9.12;100.00;99286.56;5266173;28;20448;-75
2023/10/28 05:13:24;;;;;;;5.70;2.50;;;;;;;9.12;100.00;99276.16;5265800;28;20036;-75
2023/10/28 05:15:55;;;;;;;7.63;2.57;;;;;;;9.11;100.00;99280.53;5265374;28;20045;-75
2023/10/28 05:18:27;;;;;;;6.93;2.40;;;;;;;9.11;100.00;99271.84;5265727;28;20575;-75
2023/10/28 05:20:58;;;;;;;8.03;2.60;;;;;;;9.07;100.00;99280.66;5265293;28;20025;-75
2023/10/28 05:23:29;;;;;;;5.63;2.20;;;;;;;9.03;100.00;99279.03;5265375;28;20071;-74
2023/10/28 05:26:01;;;;;;;4.93;2.47;;;;;;;9.02;100.00;99277.34;5265386;28;20159;-74
2023/10/28 05:28:32;;;;;;;7.07;2.43;;;;;;;9.04;100.00;99288.56;5264942;28;20062;-74
2023/10/28 05:31:04;;;;;;;5.00;1.97;;;;;;;9.00;100.00;99286.94;5265592;28;20029;-75
2023/10/28 05:33:35;;;;;;;4.20;1.97;;;;;;;8.99;100.00;99285.25;5265753;28;20100;-75
2023/10/28 05:36:07;;;;;;;7.67;2.57;;;;;;;8.98;100.00;99286.97;5264780;28;20083;-75
2023/10/28 05:38:38;;;;;;;6.40;2.57;;;;;;;8.99;100.00;99293.03;5265449;28;20098;-75
2023/10/28 05:41:10;;;;;;;6.13;2.43;;;;;;;8.98;100.00;99289.56;5280515;28;20028;-75
2023/10/28 05:43:41;;;;;;;6.60;2.00;;;;;;;8.97;100.00;99284.41;5247282;28;20025;-75
2023/10/28 05:46:13;;;;;;;8.13;2.23;;;;;;;8.97;100.00;99280.09;5264675;28;20107;-74
2023/10/28 05:48:44;;;;;;;5.97;2.27;;;;;;;8.99;100.00;99290.44;5264927;28;20036;-75
2023/10/28 05:51:16;;;;;;;6.43;2.20;;;;;;;8.96;100.00;99286.19;5265484;28;20267;-75
2023/10/28 05:53:48;;;;;;;9.30;2.58;;;;;;;8.94;100.00;99296.63;5265231;28;20460;-75
2023/10/28 05:56:19;;;;;;;6.90;3.30;;;;;;;8.92;100.00;99294.97;5264467;28;20017;-73
2023/10/28 05:58:50;;;;;;;5.67;1.90;;;;;;;8.89;100.00;99298.50;5264433;28;20048;-74
2023/10/28 06:01:22;;;;;;;5.33;2.30;;;;;;;8.89;100.00;99302.88;5265328;28;20456;-75
2023/10/28 06:03:53;;;;;;;11.40;2.77;;;;;;;8.89;100.00;99306.31;5264649;28;20079;-74
2023/10/28 06:06:24;;;;;;;10.50;2.30;;;;;;;8.95;100.00;99310.44;5263577;28;20098;-74
2023/10/28 06:08:57;;;;;;;7.00;2.85;;;;;;;9.04;100.00;99305.00;5264525;28;20048;-73
2023/10/28 06:11:29;;;;;;;6.05;2.38;;;;;;;9.02;100.00;99312.00;5263178;28;20025;-74
2023/10/28 06:14:01;;;;;;;8.67;2.27;;;;;;;9.05;100.00;99304.09;5264242;28;20029;-75
2023/10/28 06:16:34;;;;;;;5.77;2.47;;;;;;;9.07;100.00;99304.06;5264317;28;20127;-75
2023/10/28 06:19:06;;;;;;;6.18;2.55;;;;;;;9.11;100.00;99314.31;5264341;28;20352;-76
2023/10/28 06:21:37;;;;;;;9.10;2.63;;;;;;;9.15;100.00;99314.22;5264451;28;20077;-75
2023/10/28 06:24:09;;;;;;;6.83;2.77;;;;;;;9.20;100.00;99318.38;5264027;28;20025;-76
2023/10/28 06:26:40;;;;;;;12.07;3.17;;;;;;;9.24;100.00;99321.72;5264277;28;20111;-75
2023/10/28 06:29:12;;;;;;;6.73;2.23;;;;;;;9.23;100.00;99320.03;5264239;28;20044;-77
2023/10/28 06:31:44;;;;;;;7.45;2.63;;;;;;;9.26;100.00;99327.75;5264171;28;20032;-75
2023/10/28 06:34:16;;;;;;;9.02;2.63;;;;;;;9.27;100.00;99316.44;5264331;28;20025;-75
2023/10/28 06:36:47;;;;;;;5.00;2.63;;;;;;;9.27;100.00;99322.50;5263238;28;20375;-75
2023/10/28 06:39:19;;;;;;;9.87;3.43;;;;;;;9.24;100.00;99317.41;5264109;28;20364;-74
2023/10/28 06:41:51;;;;;;;8.47;2.50;;;;;;;9.21;100.00;99314.00;5264607;28;20414;-74
2023/10/28 06:44:22;;;;;;;5.97;2.30;;;;;;;9.19;100.00;99314.06;5264160;28;20039;-75
2023/10/28 06:46:54;;;;;;;8.27;2.30;;;;;;;9.19;100.00;99315.81;5264392;28;20029;-74
2023/10/28 06:49:25;;;;;;;12.57;2.47;;;;;;;9.16;100.00;99313.31;5262447;28;20068;-74
2023/10/28 06:51:57;;;;;;;10.47;2.63;;;;;;;9.17;100.00;99315.03;5263733;28;20025;-74
2023/10/28 06:54:28;;;;;;;9.90;2.73;;;;;;;9.17;100.00;99315.03;5263729;28;20112;-73
2023/10/28 06:57:00;;;;;;;8.10;2.50;;;;;;;9.19;100.00;99313.22;5263196;28;20029;-74
2023/10/28 06:59:34;;;;;;;7.47;2.30;;;;;;;9.20;100.00;99320.97;5263399;28;20078;-74
2023/10/28 07:02:05;;;;;;;9.98;2.22;;;;;;;9.19;100.00;99318.41;5263212;28;20032;-73
2023/10/28 07:04:37;;;;;;;8.17;3.23;;;;;;;9.22;100.00;99319.16;5278827;28;20187;-74
2023/10/28 07:07:12;;;;;;;7.33;2.40;;;;;;;9.26;100.00;99314.75;5261847;28;20040;-76
2023/10/28 07:09:44;;;;;;;8.52;2.88;;;;;;;9.29;100.00;99320.69;5263228;28;20033;-75
2023/10/28 07:12:15;;;;;;;8.27;3.27;;;;;;;9.36;100.00;99320.50;5263502;28;20032;-75
2023/10/28 07:14:47;;;;;;;10.77;2.53;;;;;;;9.42;100.00;99318.56;5263423;28;20035;-75
2023/10/28 07:17:18;;;;;;;6.23;2.33;;;;;;;9.48;100.00;99328.78;5262344;28;20044;-75
2023/10/28 07:19:50;;;;;;;10.60;2.83;;;;;;;9.50;100.00;99331.34;5263038;28;20033;-75
2023/10/28 07:22:22;;;;;;;7.80;2.58;;;;;;;9.53;100.00;99327.75;5262650;28;20021;-76
2023/10/28 07:24:54;;;;;;;10.13;2.50;;;;;;;9.52;100.00;99334.72;5262985;28;20053;-77
2023/10/28 07:27:26;;;;;;;6.10;2.47;;;;;;;9.53;100.00;99336.44;5262268;28;20114;-75
2023/10/28 07:29:59;;;;;;;5.18;2.10;;;;;;;9.56;100.00;99331.13;5263589;28;20078;-75
2023/10/28 07:32:31;;;;;;;6.82;2.50;;;;;;;9.61;100.00;99333.56;5262515;28;20345;-75
2023/10/28 07:35:02;;;;;;;9.47;2.50;;;;;;;9.67;100.00;99338.59;5262823;28;20025;-76
2023/10/28 07:37:34;;;;;;;7.50;2.97;;;;;;;9.72;100.00;99339.28;5262966;28;20021;-76
2023/10/28 07:40:06;;;;;;;7.77;2.40;;;;;;;9.79;100.00;99346.00;5262500;28;20090;-75
2023/10/28 07:42:38;;;;;;;6.30;2.75;;;;;;;9.87;100.00;99340.56;5262510;28;20048;-76
2023/10/28 07:45:10;;;;;;;7.70;2.23;;;;;;;9.96;100.00;99352.41;5262759;28;20117;-74
2023/10/28 07:47:41;;;;;;;5.97;2.63;;;;;;;10.04;100.00;99353.81;5262602;28;20094;-75
2023/10/28 07:50:13;;;;;;;6.27;2.40;;;;;;;10.12;100.00;99355.34;5262315;28;20048;-75
2023/10/28 07:52:44;;;;;;;5.40;2.73;;;;;;;10.19;100.00;99360.28;5262696;28;20454;-75
2023/10/28 07:55:16;;;;;;;7.40;2.50;;;;;;;10.26;100.00;99363.53;5262787;28;20032;-75
2023/10/28 07:57:47;;;;;;;11.47;2.50;;;;;;;10.32;100.00;99368.56;5262659;28;20036;-75
2023/10/28 08:00:18;;;;;;;9.07;2.43;;;;;;;10.40;100.00;99366.53;5263584;28;20103;-76
2023/10/28 08:02:51;;;;;;;7.30;2.33;;;;;;;10.50;100.00;99379.25;5263112;28;20087;-74
2023/10/28 08:05:24;;;;;;;6.85;2.63;;;;;;;10.58;100.00;99374.63;5263133;28;20107;-76
2023/10/28 08:07:55;;;;;;;7.00;2.20;;;;;;;10.67;100.00;99378.66;5262883;28;20036;-75
2023/10/28 08:10:27;;;;;;;7.27;2.27;;;;;;;10.77;100.00;99382.66;5261333;28;20109;-77
2023/10/28 08:12:58;;;;;;;7.93;2.50;;;;;;;10.83;100.00;99395.44;5262737;28;20036;-75
2023/10/28 08:15:30;;;;;;;9.13;2.37;;;;;;;10.87;100.00;99393.59;5262894;28;20112;-76
2023/10/28 08:18:01;;;;;;;8.77;2.80;;;;;;;10.91;100.00;99375.16;5262017;28;20025;-76
2023/10/28 08:20:32;;;;;;;12.53;2.80;;;;;;;11.02;100.00;99381.75;5278694;28;20108;-77
2023/10/28 08:23:04;;;;;;;6.47;2.80;;;;;;;11.06;100.00;99393.75;5262676;28;20028;-75
2023/10/28 08:25:35;;;;;;;8.97;2.07;;;;;;;11.07;100.00;99392.84;5262891;28;20033;-75
2023/10/28 08:28:07;;;;;;;6.27;2.93;;;;;;;11.08;100.00;99389.34;5263102;28;20020;-76
2023/10/28 08:30:38;;;;;;;6.77;2.30;;;;;;;11.05;100.00;99392.91;5262220;28;20025;-76
2023/10/28 08:33:09;;;;;;;7.83;2.33;;;;;;;11.09;100.00;99394.50;5263601;28;20029;-77
2023/10/28 08:35:41;;;;;;;6.73;2.23;;;;;;;11.06;100.00;99398.94;5282159;28;20040;-75
2023/10/28 08:38:12;;;;;;;6.97;2.57;;;;;;;11.17;100.00;99401.16;5266351;28;20064;-77
2023/10/28 08:40:45;;;;;;;6.93;2.03;;;;;;;11.26;100.00;99409.50;5266012;28;20506;-75
2023/10/28 08:43:19;;;;;;;5.57;1.75;;;;;;;11.35;100.00;99404.84;5266169;28;20056;-77
2023/10/28 08:45:53;;;;;;;8.65;2.42;;;;;;;11.41;100.00;99408.06;5266142;28;20444;-74
2023/10/28 08:48:25;;;;;;;8.65;2.42;;;;;;;11.45;100.00;99404.44;5266118;28;20430;-75
2023/10/28 08:51:00;;;;;;;7.07;2.40;;;;;;;11.48;100.00;99409.53;5266724;28;20116;-76
2023/10/28 08:53:33;;;;;;;6.20;2.58;;;;;;;11.46;100.00;99415.72;5265930;28;20028;-75
2023/10/28 08:56:05;;;;;;;10.20;2.40;;;;;;;11.46;100.00;99413.09;5265812;28;20021;-76
2023/10/28 08:58:38;;;;;;;8.00;3.43;;;;;;;11.52;100.00;99418.09;5265835;28;20044;-74
2023/10/28 09:01:09;;;;;;;6.80;2.63;;;;;;;11.62;100.00;99413.38;5266166;28;20021;-74
2023/10/28 09:03:43;;;;;;;9.87;2.30;;;;;;;11.76;100.00;99418.91;5265436;28;20025;-75
2023/10/28 09:06:15;;;;;;;10.50;2.67;;;;;;;11.82;100.00;99420.44;5266064;28;20474;-76
2023/10/28 09:08:46;;;;;;;5.57;2.23;;;;;;;11.94;100.00;99427.78;5265614;28;20021;-74
2023/10/28 09:11:19;;;;;;;8.83;2.73;;;;;;;12.15;100.00;99422.59;5265754;28;20036;-75
2023/10/28 09:13:51;;;;;;;5.55;2.10;;;;;;;12.29;100.00;99430.72;5266009;28;20456;-75
2023/10/28 09:16:24;;;;;;;8.93;2.30;;;;;;;12.45;100.00;99432.72;5265273;28;20059;-76
2023/10/28 09:18:55;;;;;;;;;;;;;;;12.94;100.00;99430.56;5266199;28;20371;-76
2023/10/28 09:21:27;;;;;;;8.55;2.72;;;;;;;13.11;100.00;99437.69;5265620;28;19980;-76
2023/10/28 09:24:01;;;;;;;6.83;2.57;;;;;;;13.29;100.00;99442.06;5265455;28;20195;-75
2023/10/28 09:26:33;;;;;;;7.05;2.78;;;;;;;13.35;100.00;99438.38;5265501;28;20143;-75
2023/10/28 09:29:04;;;;;;;7.63;2.50;;;;;;;13.37;100.00;99441.75;5265569;28;20036;-75
2023/10/28 09:31:37;;;;;;;7.13;3.03;;;;;;;13.16;100.00;99438.31;5265172;28;20078;-75
2023/10/28 09:34:08;;;;;;;5.82;2.22;;;;;;;13.20;100.00;99444.25;5265017;28;20481;-75
2023/10/28 09:36:39;;;;;;;8.37;3.07;;;;;;;13.11;100.00;99441.13;5265175;28;20044;-75
2023/10/28 09:39:13;;;;;;;6.40;2.20;;;;;;;13.04;100.00;99441.47;5264453;28;20041;-76
2023/10/28 09:41:45;;;;;;;9.13;2.60;;;;;;;12.92;100.00;99450.72;5264977;28;20434;-76
2023/10/28 09:44:16;;;;;;;7.25;2.17;;;;;;;12.82;100.00;99442.44;5264887;28;20167;-76
2023/10/28 09:46:50;;;;;;;4.30;2.10;;;;;;;12.82;100.00;99436.34;5265410;28;20063;-75
2023/10/28 09:49:24;;;;;;;6.43;2.22;;;;;;;12.69;99.83;99439.50;5264742;28;20025;-75
2023/10/28 09:52:05;;;;;;;6.05;2.38;;;;;;;12.88;100.00;99441.28;5264573;28;20525;-75
2023/10/28 09:54:38;;;;;;;13.18;3.13;;;;;;;13.02;100.00;99436.31;5264842;28;20421;-75
2023/10/28 09:57:11;;;;;;;8.35;3.17;;;;;;;13.01;99.40;99437.25;5264848;28;20032;-76
2023/10/28 09:59:44;;;;;;;6.18;2.00;;;;;;;13.39;98.02;99434.66;5280354;28;20470;-76
2023/10/28 10:02:47;;;;;;;5.45;2.28;;;;;;;14.21;97.14;99431.63;5265145;28;20017;-76
2023/10/28 10:05:26;;;;;;;6.95;1.90;;;;;;;14.82;91.39;99447.84;5265011;28;20083;-76
2023/10/28 10:07:58;;;;;;;8.82;3.70;;;;;;;14.99;85.92;99433.00;5264754;28;20459;-76
2023/10/28 10:10:29;;;;;;;7.50;2.17;;;;;;;15.73;84.87;99445.66;5264539;28;20032;-75
2023/10/28 10:13:02;;;;;;;5.80;2.50;;;;;;;16.23;83.32;99443.75;5264266;28;20056;-75
2023/10/28 10:15:35;;;;;;;5.38;2.08;;;;;;;16.58;76.37;99436.41;5264135;28;20029;-77
2023/10/28 10:18:18;;;;;;;5.03;2.28;;;;;;;16.90;77.30;99456.50;5264286;28;20032;-75
2023/10/28 10:20:59;;;;;;;8.20;2.65;;;;;;;16.79;71.20;99459.75;5264251;28;20025;-75
2023/10/28 10:23:44;;;;;;;5.35;2.20;;;;;;;16.03;72.53;99453.63;5279984;28;20387;-76
2023/10/28 10:26:25;;;;;;;7.95;2.30;;;;;;;15.50;75.08;99467.91;5264683;28;20032;-75
2023/10/28 10:29:02;;;;;;;5.43;2.05;;;;;;;15.10;74.87;99459.53;5264497;28;20396;-76
2023/10/28 10:31:36;;;;;;;8.43;2.75;;;;;;;14.61;79.87;99454.22;5264492;28;20051;-76
2023/10/28 10:34:08;;;;;;;5.30;2.03;;;;;;;14.43;80.50;99461.22;5264093;28;20056;-75
2023/10/28 10:36:42;;;;;;;6.38;2.45;;;;;;;14.61;80.68;99454.22;5263775;28;20114;-74
2023/10/28 10:39:18;;;;;;;7.05;2.55;;;;;;;14.41;80.98;99461.28;5263714;28;20368;-75
2023/10/28 10:41:54;;;;;;;8.02;2.53;;;;;;;14.42;83.27;99460.34;5263587;28;20021;-75
2023/10/28 10:44:33;;;;;;;7.88;2.50;;;;;;;14.16;82.05;99452.00;5263688;28;20105;-75
2023/10/28 10:47:08;;;;;;;9.68;2.95;;;;;;;14.06;81.53;99458.63;5263347;28;20032;-76
2023/10/28 10:49:39;;;;;;;5.82;2.25;;;;;;;14.20;81.49;99456.16;5263474;28;20028;-75
2023/10/28 10:52:11;;;;;;;7.37;2.60;;;;;;;14.82;78.00;99468.00;5263453;28;20036;-74
2023/10/28 10:54:42;;;;;;;8.07;2.23;;;;;;;15.01;74.87;99452.16;5263768;28;20075;-75
2023/10/28 10:57:14;;;;;;;7.13;2.50;;;;;;;15.38;73.21;99452.81;5262451;28;20029;-75
2023/10/28 10:59:45;;;;;;;8.17;2.40;;;;;;;16.19;72.99;99442.22;5263638;28;20033;-75
2023/10/28 11:02:17;;;;;;;9.13;3.00;;;;;;;16.62;68.86;99452.88;5262211;28;20025;-75
2023/10/28 11:04:49;;;;;;;7.28;2.40;;;;;;;16.80;66.64;99455.34;5263519;28;20029;-75
2023/10/28 11:07:20;;;;;;;10.53;3.10;;;;;;;16.85;66.34;99448.00;5263381;28;20032;-75
2023/10/28 11:09:52;;;;;;;6.97;2.67;;;;;;;16.96;66.75;99445.59;5263608;28;20433;-75
2023/10/28 11:12:23;;;;;;;9.57;2.33;;;;;;;16.86;66.74;99442.69;5262700;28;20029;-74
2023/10/28 11:14:56;;;;;;;7.18;2.72;;;;;;;17.45;63.85;99434.69;5263493;28;20028;-75
2023/10/28 11:17:28;;;;;;;7.10;2.55;;;;;;;17.39;65.21;99435.06;5263230;28;20051;-76
2023/10/28 11:20:00;;;;;;;11.57;3.70;;;;;;;17.23;62.69;99443.06;5262270;28;20029;-75
2023/10/28 11:22:32;;;;;;;7.85;2.72;;;;;;;16.86;64.13;99434.78;5263593;28;20356;-76
2023/10/28 11:25:04;;;;;;;8.30;2.77;;;;;;;16.85;62.44;99442.75;5263052;28;20032;-75
2023/10/28 11:27:37;;;;;;;12.00;3.50;;;;;;;17.14;60.78;99449.72;5271062;28;20020;-73
2023/10/28 11:30:09;;;;;;;9.95;3.10;;;;;;;17.18;60.64;99439.00;5275418;28;20035;-74
2023/10/28 11:32:40;;;;;;;10.23;2.97;;;;;;;17.10;61.07;99447.41;5274076;28;20060;-77
2023/10/28 11:35:11;;;;;;;9.53;3.53;;;;;;;16.92;63.57;99442.31;5266240;28;20082;-74
2023/10/28 11:37:43;;;;;;;10.87;3.23;;;;;;;17.22;63.83;99451.91;5284534;28;20028;-75
2023/10/28 11:40:14;;;;;;;6.43;3.20;;;;;;;18.44;59.02;99440.69;5268225;28;20093;-77
2023/10/28 11:42:45;;;;;;;7.63;2.80;;;;;;;18.47;56.10;99451.88;5264485;28;20017;-76
2023/10/28 11:45:17;;;;;;;8.73;3.13;;;;;;;18.58;55.51;99448.50;5264189;28;20025;-76
2023/10/28 11:47:48;;;;;;;9.63;3.67;;;;;;;19.04;54.13;99460.38;5268129;28;20349;-77
2023/10/28 11:50:21;;;;;;;9.07;3.27;;;;;;;18.74;54.78;99465.00;5265513;28;20066;-75
2023/10/28 11:52:53;;;;;;;10.05;3.42;;;;;;;17.95;57.32;99461.41;5263471;28;20582;-76
2023/10/28 11:55:25;;;;;;;9.80;3.60;;;;;;;17.59;58.59;99454.03;5263891;28;20032;-75